Quemado, NM (87829)

5:43 PM MST on February 12, 2016 (GMT -0700)
Cimarron Ranch, Red Hill | | Change Station
CLOSE
Current Station
Personal Weather Station
Location: Quemado, NM
Elevation: 7225 ft
Nearby Weather Stations

Elev 7225 ft 34.24 °N, 108.87 °W | Updated 9 minutes ago

Clear
Clear
60.7 °F
Feels Like 60.7 °F
N
4.0
Wind Variable Wind from NNE
Gusts 9.0 mph

Today
High -- | Low -- °F
--% Chance of Precip.
Yesterday
High -- | Low -- °F
Precip. -- in
Pressure 30.18 in
Visibility 10.0 miles
Clouds Clear
Dew Point 15 °F
Humidity 17%
Rainfall 0.00 in
Snow Depth Not available.
7:03 AM 5:55 PM
Waxing Crescent, 25% visible
METAR KSJN 122354Z AUTO 35007KT 10SM CLR 21/M15 A3026 RMK AO2 SLP218 T02061150 10217 20128 56008 TSNO
Pressure 30.18 in
Visibility 10.0 miles
Clouds Clear
Dew Point 15 °F
Humidity 17%
Rainfall 0.00 in
Snow Depth Not available.
7:03 AM 5:55 PM
Waxing Crescent, 25% visible
METAR KSJN 122354Z AUTO 35007KT 10SM CLR 21/M15 A3026 RMK AO2 SLP218 T02061150 10217 20128 56008 TSNO

10-Day Weather Forecast

Almanac

Astronomy

Feb. 12, 2016 Rise Set
Actual Time
Civil Twilight
Nautical Twilight
Astronomical Twilight
Moon
Length of Visible Light
Length of Day
Tomorrow will be .
, % of the Moon is Illuminated

Today's Extremes

State Highs State Lows

Community

WunderPhotos

Upload Photos

1,892,444 photos uploaded!

WunderBlog® & News

Nearby

Air Quality

  Air Quality AQ Index Pollutant
Not available.

Snow Depth

Station Depth Elevation

Earthquake Activity

City Distance Mag. Time & Date
Minimum magnitude displayed is 2.5.

Coastal Water Temperatures

Place Temperature

Stations

Nearby Weather Stations

Station Location Temp. Windchill Dew Point Humidity Wind Precip. Elev Updated Type
                   

Watches & Warnings

There are currently no watches in effect.